sensor_id;sensor_type;location;lat;lon;timestamp;noise_LAeq;noise_LA_min;noise_LA_max;noise_LA01;noise_LA95
43938;Laerm;71382;47.750;10.226;2023-12-28T00:01:50;54.64;54.08;58.27;;
43938;Laerm;71382;47.750;10.226;2023-12-28T00:04:16;54.94;54.11;56.60;;
43938;Laerm;71382;47.750;10.226;2023-12-28T00:06:42;55.10;54.49;55.75;;
43938;Laerm;71382;47.750;10.226;2023-12-28T00:09:07;54.86;54.05;55.58;;
43938;Laerm;71382;47.750;10.226;2023-12-28T00:11:33;54.61;53.96;55.33;;
43938;Laerm;71382;47.750;10.226;2023-12-28T00:13:59;54.82;54.07;55.55;;
43938;Laerm;71382;47.750;10.226;2023-12-28T00:16:25;55.08;54.31;55.84;;
43938;Laerm;71382;47.750;10.226;2023-12-28T00:18:51;55.35;54.75;56.13;;
43938;Laerm;71382;47.750;10.226;2023-12-28T00:21:16;55.21;54.53;56.06;;
43938;Laerm;71382;47.750;10.226;2023-12-28T00:23:42;55.46;54.33;56.42;;
43938;Laerm;71382;47.750;10.226;2023-12-28T00:26:07;55.47;53.96;56.45;;
43938;Laerm;71382;47.750;10.226;2023-12-28T00:28:33;55.42;54.77;56.04;;
43938;Laerm;71382;47.750;10.226;2023-12-28T00:30:58;55.32;54.66;56.09;;
43938;Laerm;71382;47.750;10.226;2023-12-28T00:33:24;55.31;54.43;56.09;;
43938;Laerm;71382;47.750;10.226;2023-12-28T00:35:49;55.34;54.68;55.99;;
43938;Laerm;71382;47.750;10.226;2023-12-28T00:38:15;55.33;54.67;56.02;;
43938;Laerm;71382;47.750;10.226;2023-12-28T00:40:41;55.33;54.66;56.02;;
43938;Laerm;71382;47.750;10.226;2023-12-28T00:43:06;55.31;54.61;55.92;;
43938;Laerm;71382;47.750;10.226;2023-12-28T00:45:32;55.29;54.47;55.90;;
43938;Laerm;71382;47.750;10.226;2023-12-28T00:47:58;55.27;54.63;55.92;;
43938;Laerm;71382;47.750;10.226;2023-12-28T00:50:24;54.41;53.24;55.80;;
43938;Laerm;71382;47.750;10.226;2023-12-28T00:52:52;54.86;53.65;56.10;;
43938;Laerm;71382;47.750;10.226;2023-12-28T00:55:18;55.34;54.74;55.98;;
43938;Laerm;71382;47.750;10.226;2023-12-28T00:57:43;55.46;54.68;56.09;;
43938;Laerm;71382;47.750;10.226;2023-12-28T01:00:09;55.55;54.81;59.41;;
43938;Laerm;71382;47.750;10.226;2023-12-28T01:02:35;55.61;54.82;61.99;;
43938;Laerm;71382;47.750;10.226;2023-12-28T01:05:00;55.61;54.90;56.28;;
43938;Laerm;71382;47.750;10.226;2023-12-28T01:07:26;55.55;54.82;56.36;;
43938;Laerm;71382;47.750;10.226;2023-12-28T01:09:51;55.86;54.93;66.45;;
43938;Laerm;71382;47.750;10.226;2023-12-28T01:12:17;55.56;54.71;60.04;;
43938;Laerm;71382;47.750;10.226;2023-12-28T01:14:43;55.22;54.18;57.76;;
43938;Laerm;71382;47.750;10.226;2023-12-28T01:17:08;55.24;54.24;56.67;;
43938;Laerm;71382;47.750;10.226;2023-12-28T01:19:34;54.75;54.04;57.53;;
43938;Laerm;71382;47.750;10.226;2023-12-28T01:21:59;54.65;53.86;55.99;;
43938;Laerm;71382;47.750;10.226;2023-12-28T01:24:25;54.57;53.99;55.92;;
43938;Laerm;71382;47.750;10.226;2023-12-28T01:26:52;54.40;53.64;55.20;;
43938;Laerm;71382;47.750;10.226;2023-12-28T01:29:17;54.73;53.87;60.44;;
43938;Laerm;71382;47.750;10.226;2023-12-28T01:31:43;55.74;54.38;64.63;;
43938;Laerm;71382;47.750;10.226;2023-12-28T01:34:08;56.27;55.04;68.52;;
43938;Laerm;71382;47.750;10.226;2023-12-28T01:36:34;55.78;54.88;60.59;;
43938;Laerm;71382;47.750;10.226;2023-12-28T01:39:00;55.73;52.79;69.94;;
43938;Laerm;71382;47.750;10.226;2023-12-28T01:41:25;53.52;52.09;63.14;;
43938;Laerm;71382;47.750;10.226;2023-12-28T01:43:51;55.08;52.02;71.16;;
43938;Laerm;71382;47.750;10.226;2023-12-28T01:46:18;53.91;51.90;69.96;;
43938;Laerm;71382;47.750;10.226;2023-12-28T01:48:44;53.52;52.17;64.54;;
43938;Laerm;71382;47.750;10.226;2023-12-28T01:51:12;54.56;53.16;58.63;;
43938;Laerm;71382;47.750;10.226;2023-12-28T01:53:38;55.60;54.84;59.96;;
43938;Laerm;71382;47.750;10.226;2023-12-28T01:56:04;55.56;54.71;64.17;;
43938;Laerm;71382;47.750;10.226;2023-12-28T01:58:31;56.57;54.76;71.28;;
43938;Laerm;71382;47.750;10.226;2023-12-28T02:00:58;55.69;54.73;65.36;;
43938;Laerm;71382;47.750;10.226;2023-12-28T02:03:24;55.84;54.68;62.92;;
43938;Laerm;71382;47.750;10.226;2023-12-28T02:05:50;56.68;54.87;70.90;;
43938;Laerm;71382;47.750;10.226;2023-12-28T02:08:16;61.60;54.59;77.51;;
43938;Laerm;71382;47.750;10.226;2023-12-28T02:10:42;55.83;54.64;67.58;;
43938;Laerm;71382;47.750;10.226;2023-12-28T02:13:08;55.54;54.84;58.69;;
43938;Laerm;71382;47.750;10.226;2023-12-28T02:15:33;55.57;54.91;60.60;;
43938;Laerm;71382;47.750;10.226;2023-12-28T02:18:06;56.29;54.85;71.09;;
43938;Laerm;71382;47.750;10.226;2023-12-28T02:20:34;55.61;54.78;66.18;;
43938;Laerm;71382;47.750;10.226;2023-12-28T02:23:00;55.93;54.71;65.82;;
43938;Laerm;71382;47.750;10.226;2023-12-28T02:25:26;56.62;54.87;68.38;;
43938;Laerm;71382;47.750;10.226;2023-12-28T02:27:51;57.27;54.89;71.41;;
43938;Laerm;71382;47.750;10.226;2023-12-28T02:30:18;55.96;54.48;67.07;;
43938;Laerm;71382;47.750;10.226;2023-12-28T02:35:14;55.71;54.01;68.25;;
43938;Laerm;71382;47.750;10.226;2023-12-28T02:37:43;57.04;54.73;71.57;;
43938;Laerm;71382;47.750;10.226;2023-12-28T02:40:10;57.32;54.79;75.92;;
43938;Laerm;71382;47.750;10.226;2023-12-28T02:42:36;56.61;54.77;71.06;;
43938;Laerm;71382;47.750;10.226;2023-12-28T02:45:01;58.33;54.95;76.92;;
43938;Laerm;71382;47.750;10.226;2023-12-28T02:47:27;56.89;54.70;71.19;;
43938;Laerm;71382;47.750;10.226;2023-12-28T02:49:53;56.00;54.57;70.10;;
43938;Laerm;71382;47.750;10.226;2023-12-28T02:52:18;59.09;54.67;76.00;;
43938;Laerm;71382;47.750;10.226;2023-12-28T02:54:44;55.32;53.21;62.74;;
43938;Laerm;71382;47.750;10.226;2023-12-28T02:57:09;55.44;53.02;73.46;;
43938;Laerm;71382;47.750;10.226;2023-12-28T02:59:35;54.21;53.15;62.39;;
43938;Laerm;71382;47.750;10.226;2023-12-28T03:02:00;56.86;53.49;76.58;;
43938;Laerm;71382;47.750;10.226;2023-12-28T03:04:26;54.65;53.70;63.43;;
43938;Laerm;71382;47.750;10.226;2023-12-28T03:06:52;56.24;54.30;74.10;;
43938;Laerm;71382;47.750;10.226;2023-12-28T03:09:17;56.07;53.28;69.43;;
43938;Laerm;71382;47.750;10.226;2023-12-28T03:11:43;55.68;54.71;63.95;;
43938;Laerm;71382;47.750;10.226;2023-12-28T03:14:08;55.60;54.70;61.68;;
43938;Laerm;71382;47.750;10.226;2023-12-28T03:16:34;55.95;54.64;72.17;;
43938;Laerm;71382;47.750;10.226;2023-12-28T03:19:00;56.00;54.96;66.79;;
43938;Laerm;71382;47.750;10.226;2023-12-28T03:21:26;56.28;54.88;71.32;;
43938;Laerm;71382;47.750;10.226;2023-12-28T03:23:53;55.68;54.97;58.07;;
43938;Laerm;71382;47.750;10.226;2023-12-28T03:26:18;56.56;55.02;70.15;;
43938;Laerm;71382;47.750;10.226;2023-12-28T03:28:44;55.93;54.99;66.00;;
43938;Laerm;71382;47.750;10.226;2023-12-28T03:31:10;57.29;55.00;72.64;;
43938;Laerm;71382;47.750;10.226;2023-12-28T03:33:35;56.44;55.05;67.10;;
43938;Laerm;71382;47.750;10.226;2023-12-28T03:36:01;56.49;54.82;72.76;;
43938;Laerm;71382;47.750;10.226;2023-12-28T03:38:27;58.90;54.97;77.83;;
43938;Laerm;71382;47.750;10.226;2023-12-28T03:40:53;56.18;54.99;67.36;;
43938;Laerm;71382;47.750;10.226;2023-12-28T03:43:19;56.65;55.02;69.83;;
43938;Laerm;71382;47.750;10.226;2023-12-28T03:45:44;57.01;54.81;68.18;;
43938;Laerm;71382;47.750;10.226;2023-12-28T03:48:10;56.27;55.03;65.63;;
43938;Laerm;71382;47.750;10.226;2023-12-28T03:50:36;56.50;55.06;67.21;;
43938;Laerm;71382;47.750;10.226;2023-12-28T03:53:01;56.61;54.73;70.25;;
43938;Laerm;71382;47.750;10.226;2023-12-28T03:55:27;57.12;54.81;73.41;;
43938;Laerm;71382;47.750;10.226;2023-12-28T03:57:52;56.13;54.86;67.77;;
43938;Laerm;71382;47.750;10.226;2023-12-28T04:00:18;56.25;55.03;68.05;;
43938;Laerm;71382;47.750;10.226;2023-12-28T04:02:43;55.73;54.91;60.43;;
43938;Laerm;71382;47.750;10.226;2023-12-28T04:05:09;55.70;54.79;62.12;;
43938;Laerm;71382;47.750;10.226;2023-12-28T04:07:36;55.79;54.77;63.23;;
43938;Laerm;71382;47.750;10.226;2023-12-28T04:10:01;56.09;55.00;69.49;;
43938;Laerm;71382;47.750;10.226;2023-12-28T04:12:27;55.71;54.93;61.76;;
43938;Laerm;71382;47.750;10.226;2023-12-28T04:14:53;56.01;54.95;66.58;;
43938;Laerm;71382;47.750;10.226;2023-12-28T04:17:19;56.10;55.01;69.64;;
43938;Laerm;71382;47.750;10.226;2023-12-28T04:19:45;56.81;54.84;70.32;;
43938;Laerm;71382;47.750;10.226;2023-12-28T04:22:10;57.17;54.46;74.65;;
43938;Laerm;71382;47.750;10.226;2023-12-28T04:24:36;52.15;32.77;60.69;;
43938;Laerm;71382;47.750;10.226;2023-12-28T04:27:02;52.63;33.08;59.07;;
43938;Laerm;71382;47.750;10.226;2023-12-28T04:29:28;52.76;51.71;58.37;;
43938;Laerm;71382;47.750;10.226;2023-12-28T04:31:53;51.76;50.71;59.20;;
43938;Laerm;71382;47.750;10.226;2023-12-28T04:34:19;54.22;51.06;73.87;;
43938;Laerm;71382;47.750;10.226;2023-12-28T04:36:45;52.15;51.22;62.63;;
43938;Laerm;71382;47.750;10.226;2023-12-28T04:39:12;52.49;51.36;62.80;;
43938;Laerm;71382;47.750;10.226;2023-12-28T04:41:38;51.94;51.26;57.98;;
43938;Laerm;71382;47.750;10.226;2023-12-28T04:44:04;52.25;51.39;58.62;;
43938;Laerm;71382;47.750;10.226;2023-12-28T04:46:29;52.08;51.30;57.39;;
43938;Laerm;71382;47.750;10.226;2023-12-28T04:48:55;52.61;51.45;66.18;;
43938;Laerm;71382;47.750;10.226;2023-12-28T04:51:20;52.19;51.41;62.16;;
43938;Laerm;71382;47.750;10.226;2023-12-28T04:53:46;52.28;51.35;59.91;;
43938;Laerm;71382;47.750;10.226;2023-12-28T04:56:12;52.34;51.56;63.84;;
43938;Laerm;71382;47.750;10.226;2023-12-28T04:58:37;52.54;51.50;62.23;;
43938;Laerm;71382;47.750;10.226;2023-12-28T05:01:03;52.47;48.40;60.60;;
43938;Laerm;71382;47.750;10.226;2023-12-28T05:03:29;52.07;51.58;55.20;;
43938;Laerm;71382;47.750;10.226;2023-12-28T05:05:54;52.21;51.41;63.03;;
43938;Laerm;71382;47.750;10.226;2023-12-28T05:08:20;52.22;51.40;55.71;;
43938;Laerm;71382;47.750;10.226;2023-12-28T05:10:46;52.28;51.49;62.70;;
43938;Laerm;71382;47.750;10.226;2023-12-28T05:13:12;52.13;51.57;56.13;;
43938;Laerm;71382;47.750;10.226;2023-12-28T05:15:37;52.09;51.52;55.94;;
43938;Laerm;71382;47.750;10.226;2023-12-28T05:18:03;52.21;51.62;54.86;;
43938;Laerm;71382;47.750;10.226;2023-12-28T05:20:29;52.43;51.68;60.74;;
43938;Laerm;71382;47.750;10.226;2023-12-28T05:22:55;52.28;51.67;55.09;;
43938;Laerm;71382;47.750;10.226;2023-12-28T05:25:20;52.24;51.66;56.36;;
43938;Laerm;71382;47.750;10.226;2023-12-28T05:27:46;52.16;51.64;52.66;;
43938;Laerm;71382;47.750;10.226;2023-12-28T05:30:11;52.29;51.52;55.43;;
43938;Laerm;71382;47.750;10.226;2023-12-28T05:32:37;52.19;51.68;54.09;;
43938;Laerm;71382;47.750;10.226;2023-12-28T05:35:03;52.22;51.62;54.48;;
43938;Laerm;71382;47.750;10.226;2023-12-28T05:37:28;52.31;51.57;54.43;;
43938;Laerm;71382;47.750;10.226;2023-12-28T05:39:54;52.55;51.61;65.06;;
43938;Laerm;71382;47.750;10.226;2023-12-28T05:42:20;52.25;51.50;56.42;;
43938;Laerm;71382;47.750;10.226;2023-12-28T05:44:45;52.27;51.50;62.24;;
43938;Laerm;71382;47.750;10.226;2023-12-28T05:47:11;52.11;51.54;54.46;;
43938;Laerm;71382;47.750;10.226;2023-12-28T05:49:37;52.21;51.60;57.82;;
43938;Laerm;71382;47.750;10.226;2023-12-28T05:52:02;52.04;51.56;53.27;;
43938;Laerm;71382;47.750;10.226;2023-12-28T05:54:28;51.98;51.20;54.33;;
43938;Laerm;71382;47.750;10.226;2023-12-28T05:56:53;51.54;50.52;66.16;;
43938;Laerm;71382;47.750;10.226;2023-12-28T05:59:19;51.37;50.61;55.46;;
43938;Laerm;71382;47.750;10.226;2023-12-28T06:01:46;50.41;48.72;58.55;;
43938;Laerm;71382;47.750;10.226;2023-12-28T06:04:12;49.93;48.78;61.53;;
43938;Laerm;71382;47.750;10.226;2023-12-28T06:06:38;49.62;48.84;57.36;;
43938;Laerm;71382;47.750;10.226;2023-12-28T06:09:03;49.85;48.80;57.47;;
43938;Laerm;71382;47.750;10.226;2023-12-28T06:11:29;50.91;48.91;63.27;;
43938;Laerm;71382;47.750;10.226;2023-12-28T06:13:55;50.97;48.98;65.04;;
43938;Laerm;71382;47.750;10.226;2023-12-28T06:16:21;50.71;48.94;64.24;;
43938;Laerm;71382;47.750;10.226;2023-12-28T06:18:46;50.57;48.98;61.97;;
43938;Laerm;71382;47.750;10.226;2023-12-28T06:21:12;50.49;49.11;61.46;;
43938;Laerm;71382;47.750;10.226;2023-12-28T06:23:38;49.64;49.00;61.22;;
43938;Laerm;71382;47.750;10.226;2023-12-28T06:26:06;50.06;49.04;59.35;;
43938;Laerm;71382;47.750;10.226;2023-12-28T06:28:32;51.44;48.67;62.94;;
43938;Laerm;71382;47.750;10.226;2023-12-28T06:30:58;49.97;48.95;52.67;;
43938;Laerm;71382;47.750;10.226;2023-12-28T06:33:26;49.89;49.07;58.86;;
43938;Laerm;71382;47.750;10.226;2023-12-28T06:35:53;49.77;49.03;59.16;;
43938;Laerm;71382;47.750;10.226;2023-12-28T06:38:18;50.57;48.99;66.42;;
43938;Laerm;71382;47.750;10.226;2023-12-28T06:40:44;50.33;49.12;60.39;;
43938;Laerm;71382;47.750;10.226;2023-12-28T06:43:09;51.81;49.01;69.91;;
43938;Laerm;71382;47.750;10.226;2023-12-28T06:45:35;49.53;48.97;52.89;;
43938;Laerm;71382;47.750;10.226;2023-12-28T06:48:00;49.55;48.88;51.85;;
43938;Laerm;71382;47.750;10.226;2023-12-28T06:50:26;49.78;48.89;53.04;;
43938;Laerm;71382;47.750;10.226;2023-12-28T06:52:52;49.86;48.84;61.17;;
43938;Laerm;71382;47.750;10.226;2023-12-28T06:55:18;49.63;48.98;52.43;;
43938;Laerm;71382;47.750;10.226;2023-12-28T06:57:43;49.60;49.01;53.31;;
43938;Laerm;71382;47.750;10.226;2023-12-28T07:00:09;50.15;48.93;55.58;;
43938;Laerm;71382;47.750;10.226;2023-12-28T07:02:35;49.69;48.97;54.23;;
43938;Laerm;71382;47.750;10.226;2023-12-28T07:05:01;49.80;49.01;53.28;;
43938;Laerm;71382;47.750;10.226;2023-12-28T07:07:26;49.74;49.13;52.54;;
43938;Laerm;71382;47.750;10.226;2023-12-28T07:09:53;49.90;48.89;55.49;;
43938;Laerm;71382;47.750;10.226;2023-12-28T07:12:19;49.93;48.83;58.60;;
43938;Laerm;71382;47.750;10.226;2023-12-28T07:14:45;49.67;49.04;53.05;;
43938;Laerm;71382;47.750;10.226;2023-12-28T07:17:11;49.93;49.05;56.34;;
43938;Laerm;71382;47.750;10.226;2023-12-28T07:19:37;49.99;49.03;55.30;;
43938;Laerm;71382;47.750;10.226;2023-12-28T07:22:03;49.88;49.03;52.85;;
43938;Laerm;71382;47.750;10.226;2023-12-28T07:24:28;49.57;48.83;52.46;;
43938;Laerm;71382;47.750;10.226;2023-12-28T07:26:54;49.88;48.85;57.26;;
43938;Laerm;71382;47.750;10.226;2023-12-28T07:29:19;50.23;48.96;59.66;;
43938;Laerm;71382;47.750;10.226;2023-12-28T07:31:45;50.08;49.05;61.70;;
43938;Laerm;71382;47.750;10.226;2023-12-28T07:34:11;49.83;48.94;58.73;;
43938;Laerm;71382;47.750;10.226;2023-12-28T07:36:36;49.97;49.02;60.80;;
43938;Laerm;71382;47.750;10.226;2023-12-28T07:39:02;50.86;49.07;60.48;;
43938;Laerm;71382;47.750;10.226;2023-12-28T07:41:28;50.70;49.07;63.43;;
43938;Laerm;71382;47.750;10.226;2023-12-28T07:43:54;50.10;48.94;59.42;;
43938;Laerm;71382;47.750;10.226;2023-12-28T07:46:19;55.11;48.87;76.22;;
43938;Laerm;71382;47.750;10.226;2023-12-28T07:48:46;50.49;48.93;63.19;;
43938;Laerm;71382;47.750;10.226;2023-12-28T07:51:12;49.55;48.52;56.17;;
43938;Laerm;71382;47.750;10.226;2023-12-28T07:53:38;50.03;48.71;57.45;;
43938;Laerm;71382;47.750;10.226;2023-12-28T07:56:04;52.09;48.76;67.45;;
43938;Laerm;71382;47.750;10.226;2023-12-28T07:58:29;54.74;49.61;74.96;;
43938;Laerm;71382;47.750;10.226;2023-12-28T08:00:55;52.29;50.74;62.52;;
43938;Laerm;71382;47.750;10.226;2023-12-28T08:03:21;54.57;49.92;68.44;;
43938;Laerm;71382;47.750;10.226;2023-12-28T08:05:46;51.19;50.39;54.20;;
43938;Laerm;71382;47.750;10.226;2023-12-28T08:08:12;51.84;50.71;55.18;;
43938;Laerm;71382;47.750;10.226;2023-12-28T08:10:38;52.22;51.34;56.10;;
43938;Laerm;71382;47.750;10.226;2023-12-28T08:13:03;52.79;51.77;54.22;;
43938;Laerm;71382;47.750;10.226;2023-12-28T08:15:29;52.40;51.59;54.15;;
43938;Laerm;71382;47.750;10.226;2023-12-28T08:17:54;52.11;51.57;52.93;;
43938;Laerm;71382;47.750;10.226;2023-12-28T08:20:20;52.32;51.49;62.87;;
43938;Laerm;71382;47.750;10.226;2023-12-28T08:22:46;52.75;51.59;68.10;;
43938;Laerm;71382;47.750;10.226;2023-12-28T08:25:11;52.33;51.40;53.26;;
43938;Laerm;71382;47.750;10.226;2023-12-28T08:27:37;52.53;51.63;55.16;;
43938;Laerm;71382;47.750;10.226;2023-12-28T08:30:03;52.24;51.51;54.24;;
43938;Laerm;71382;47.750;10.226;2023-12-28T08:32:29;53.04;51.52;60.98;;
43938;Laerm;71382;47.750;10.226;2023-12-28T08:34:55;53.03;51.55;55.22;;
43938;Laerm;71382;47.750;10.226;2023-12-28T08:37:21;54.66;51.99;72.50;;
43938;Laerm;71382;47.750;10.226;2023-12-28T08:39:47;52.88;52.11;55.37;;
43938;Laerm;71382;47.750;10.226;2023-12-28T08:42:12;52.70;51.89;54.59;;
43938;Laerm;71382;47.750;10.226;2023-12-28T08:44:38;52.73;52.08;54.41;;
43938;Laerm;71382;47.750;10.226;2023-12-28T08:47:03;54.63;52.12;65.20;;
43938;Laerm;71382;47.750;10.226;2023-12-28T08:49:29;52.79;51.97;54.23;;
43938;Laerm;71382;47.750;10.226;2023-12-28T08:51:54;52.71;51.89;54.88;;
43938;Laerm;71382;47.750;10.226;2023-12-28T08:54:20;52.59;51.90;57.60;;
43938;Laerm;71382;47.750;10.226;2023-12-28T08:56:46;52.68;51.98;54.91;;
43938;Laerm;71382;47.750;10.226;2023-12-28T08:59:13;53.71;51.75;67.42;;
43938;Laerm;71382;47.750;10.226;2023-12-28T09:01:39;52.90;51.87;61.30;;
43938;Laerm;71382;47.750;10.226;2023-12-28T09:04:04;53.54;51.91;65.06;;
43938;Laerm;71382;47.750;10.226;2023-12-28T09:06:30;54.97;51.87;73.45;;
43938;Laerm;71382;47.750;10.226;2023-12-28T09:08:56;54.13;51.65;70.65;;
43938;Laerm;71382;47.750;10.226;2023-12-28T09:11:22;52.93;51.71;60.22;;
43938;Laerm;71382;47.750;10.226;2023-12-28T09:13:47;52.86;51.85;62.95;;
43938;Laerm;71382;47.750;10.226;2023-12-28T09:16:14;52.88;51.76;61.24;;
43938;Laerm;71382;47.750;10.226;2023-12-28T09:18:40;52.36;51.52;60.55;;
43938;Laerm;71382;47.750;10.226;2023-12-28T09:21:06;52.65;51.74;58.15;;
43938;Laerm;71382;47.750;10.226;2023-12-28T09:23:32;53.87;51.97;61.51;;
43938;Laerm;71382;47.750;10.226;2023-12-28T09:25:58;52.83;51.73;59.08;;
43938;Laerm;71382;47.750;10.226;2023-12-28T09:28:24;52.49;51.68;55.54;;
43938;Laerm;71382;47.750;10.226;2023-12-28T09:30:50;54.02;51.66;66.59;;
43938;Laerm;71382;47.750;10.226;2023-12-28T09:33:15;52.89;51.77;63.81;;
43938;Laerm;71382;47.750;10.226;2023-12-28T09:35:41;53.68;51.78;57.12;;
43938;Laerm;71382;47.750;10.226;2023-12-28T09:38:07;54.10;51.88;68.06;;
43938;Laerm;71382;47.750;10.226;2023-12-28T09:40:33;52.60;51.59;61.46;;
43938;Laerm;71382;47.750;10.226;2023-12-28T09:43:01;52.88;51.58;61.12;;
43938;Laerm;71382;47.750;10.226;2023-12-28T09:45:29;49.13;33.09;64.56;;
43938;Laerm;71382;47.750;10.226;2023-12-28T09:47:55;53.20;33.72;75.16;;
43938;Laerm;71382;47.750;10.226;2023-12-28T09:50:21;49.93;34.75;64.86;;
43938;Laerm;71382;47.750;10.226;2023-12-28T09:52:46;50.63;34.01;68.57;;
43938;Laerm;71382;47.750;10.226;2023-12-28T09:55:12;50.49;34.72;69.96;;
43938;Laerm;71382;47.750;10.226;2023-12-28T09:57:38;46.89;43.53;61.39;;
43938;Laerm;71382;47.750;10.226;2023-12-28T10:00:04;54.63;43.10;72.48;;
43938;Laerm;71382;47.750;10.226;2023-12-28T10:02:38;49.82;43.11;67.18;;
43938;Laerm;71382;47.750;10.226;2023-12-28T10:05:05;44.90;42.68;55.50;;
43938;Laerm;71382;47.750;10.226;2023-12-28T10:07:31;46.52;42.63;62.63;;
43938;Laerm;71382;47.750;10.226;2023-12-28T10:09:56;44.41;42.66;53.75;;
43938;Laerm;71382;47.750;10.226;2023-12-28T10:12:22;48.65;42.83;65.77;;
43938;Laerm;71382;47.750;10.226;2023-12-28T10:14:50;45.60;43.25;55.51;;
43938;Laerm;71382;47.750;10.226;2023-12-28T10:17:16;43.87;42.36;51.45;;
43938;Laerm;71382;47.750;10.226;2023-12-28T10:19:41;47.44;42.21;63.93;;
43938;Laerm;71382;47.750;10.226;2023-12-28T10:22:07;44.22;39.69;55.29;;
43938;Laerm;71382;47.750;10.226;2023-12-28T10:24:33;43.26;39.50;50.71;;
43938;Laerm;71382;47.750;10.226;2023-12-28T10:26:58;42.77;31.59;51.92;;
43938;Laerm;71382;47.750;10.226;2023-12-28T10:29:24;43.50;32.02;55.56;;
43938;Laerm;71382;47.750;10.226;2023-12-28T10:31:50;42.43;35.67;49.96;;
43938;Laerm;71382;47.750;10.226;2023-12-28T10:34:16;42.61;38.39;49.80;;
43938;Laerm;71382;47.750;10.226;2023-12-28T10:36:43;43.37;38.60;52.63;;
43938;Laerm;71382;47.750;10.226;2023-12-28T10:39:10;41.70;38.93;48.33;;
43938;Laerm;71382;47.750;10.226;2023-12-28T10:41:38;41.41;38.67;47.40;;
43938;Laerm;71382;47.750;10.226;2023-12-28T10:44:06;44.34;38.78;68.42;;
43938;Laerm;71382;47.750;10.226;2023-12-28T10:46:33;42.30;38.85;52.57;;
43938;Laerm;71382;47.750;10.226;2023-12-28T10:49:10;42.10;38.71;49.99;;
43938;Laerm;71382;47.750;10.226;2023-12-28T10:51:35;43.42;38.87;51.37;;
43938;Laerm;71382;47.750;10.226;2023-12-28T10:56:32;44.73;36.56;54.63;;
43938;Laerm;71382;47.750;10.226;2023-12-28T10:59:04;39.70;36.12;46.93;;
43938;Laerm;71382;47.750;10.226;2023-12-28T11:01:35;42.76;36.30;56.55;;
43938;Laerm;71382;47.750;10.226;2023-12-28T11:06:49;41.97;36.27;50.70;;
43938;Laerm;71382;47.750;10.226;2023-12-28T11:09:15;42.74;36.68;57.76;;
43938;Laerm;71382;47.750;10.226;2023-12-28T11:11:41;45.07;36.27;62.61;;
43938;Laerm;71382;47.750;10.226;2023-12-28T11:14:08;41.55;37.24;58.29;;
43938;Laerm;71382;47.750;10.226;2023-12-28T11:16:34;42.76;37.87;56.05;;
43938;Laerm;71382;47.750;10.226;2023-12-28T11:18:59;41.74;38.27;53.82;;
43938;Laerm;71382;47.750;10.226;2023-12-28T11:21:25;43.55;38.66;52.61;;
43938;Laerm;71382;47.750;10.226;2023-12-28T11:23:51;40.63;38.27;47.18;;
43938;Laerm;71382;47.750;10.226;2023-12-28T11:26:21;45.60;39.30;60.84;;
43938;Laerm;71382;47.750;10.226;2023-12-28T11:28:47;45.30;38.32;58.23;;
43938;Laerm;71382;47.750;10.226;2023-12-28T11:31:16;43.35;37.75;51.51;;
43938;Laerm;71382;47.750;10.226;2023-12-28T11:36:10;41.80;37.67;48.50;;
43938;Laerm;71382;47.750;10.226;2023-12-28T11:38:37;48.12;38.37;62.19;;
43938;Laerm;71382;47.750;10.226;2023-12-28T11:41:03;40.58;37.71;53.97;;
43938;Laerm;71382;47.750;10.226;2023-12-28T11:43:29;43.07;33.29;55.75;;
43938;Laerm;71382;47.750;10.226;2023-12-28T11:45:59;43.45;32.65;60.05;;
43938;Laerm;71382;47.750;10.226;2023-12-28T11:48:25;44.27;31.98;65.34;;
43938;Laerm;71382;47.750;10.226;2023-12-28T11:50:58;41.56;32.23;52.85;;
43938;Laerm;71382;47.750;10.226;2023-12-28T11:53:24;48.06;31.93;70.94;;
43938;Laerm;71382;47.750;10.226;2023-12-28T11:55:50;41.61;31.81;54.60;;
43938;Laerm;71382;47.750;10.226;2023-12-28T11:58:19;43.85;31.42;63.09;;
43938;Laerm;71382;47.750;10.226;2023-12-28T12:00:45;39.64;32.19;59.48;;
43938;Laerm;71382;47.750;10.226;2023-12-28T12:03:11;41.78;32.30;59.64;;
43938;Laerm;71382;47.750;10.226;2023-12-28T12:05:37;44.77;31.90;60.07;;
43938;Laerm;71382;47.750;10.226;2023-12-28T12:08:04;46.69;32.44;63.41;;
43938;Laerm;71382;47.750;10.226;2023-12-28T12:10:29;41.77;32.08;55.86;;
43938;Laerm;71382;47.750;10.226;2023-12-28T12:12:55;42.15;33.39;54.62;;
43938;Laerm;71382;47.750;10.226;2023-12-28T12:15:20;41.51;31.80;59.90;;
43938;Laerm;71382;47.750;10.226;2023-12-28T12:17:46;49.45;31.87;71.99;;
43938;Laerm;71382;47.750;10.226;2023-12-28T12:20:13;42.95;32.06;65.59;;
43938;Laerm;71382;47.750;10.226;2023-12-28T12:22:39;49.28;32.63;66.89;;
43938;Laerm;71382;47.750;10.226;2023-12-28T12:25:05;46.52;32.67;63.34;;
43938;Laerm;71382;47.750;10.226;2023-12-28T12:27:31;40.70;31.72;53.88;;
43938;Laerm;71382;47.750;10.226;2023-12-28T12:29:57;42.69;32.22;57.89;;
43938;Laerm;71382;47.750;10.226;2023-12-28T12:32:23;44.06;32.87;64.47;;
43938;Laerm;71382;47.750;10.226;2023-12-28T12:34:49;43.35;33.40;60.37;;
43938;Laerm;71382;47.750;10.226;2023-12-28T12:37:15;43.25;32.82;58.11;;
43938;Laerm;71382;47.750;10.226;2023-12-28T12:39:41;42.87;33.19;54.41;;
43938;Laerm;71382;47.750;10.226;2023-12-28T12:42:06;44.15;33.03;62.83;;
43938;Laerm;71382;47.750;10.226;2023-12-28T12:44:32;44.91;33.95;61.03;;
43938;Laerm;71382;47.750;10.226;2023-12-28T12:46:58;47.02;32.70;66.75;;
43938;Laerm;71382;47.750;10.226;2023-12-28T12:49:25;44.18;32.48;62.45;;
43938;Laerm;71382;47.750;10.226;2023-12-28T12:51:50;42.63;32.68;63.39;;
43938;Laerm;71382;47.750;10.226;2023-12-28T12:54:17;43.47;32.60;62.74;;
43938;Laerm;71382;47.750;10.226;2023-12-28T12:56:44;44.22;36.25;59.67;;
43938;Laerm;71382;47.750;10.226;2023-12-28T12:59:10;45.16;34.56;57.04;;
43938;Laerm;71382;47.750;10.226;2023-12-28T13:01:41;44.21;34.02;62.52;;
43938;Laerm;71382;47.750;10.226;2023-12-28T13:04:07;41.78;33.77;50.88;;
43938;Laerm;71382;47.750;10.226;2023-12-28T13:06:32;44.26;36.85;61.78;;
43938;Laerm;71382;47.750;10.226;2023-12-28T13:08:58;42.90;37.73;55.37;;
43938;Laerm;71382;47.750;10.226;2023-12-28T13:11:24;45.42;39.63;62.28;;
43938;Laerm;71382;47.750;10.226;2023-12-28T13:13:52;46.01;39.71;61.16;;
43938;Laerm;71382;47.750;10.226;2023-12-28T13:16:17;45.80;40.03;59.91;;
43938;Laerm;71382;47.750;10.226;2023-12-28T13:18:43;47.78;40.23;61.20;;
43938;Laerm;71382;47.750;10.226;2023-12-28T13:21:08;45.96;40.20;55.22;;
43938;Laerm;71382;47.750;10.226;2023-12-28T13:23:34;46.80;40.61;58.08;;
43938;Laerm;71382;47.750;10.226;2023-12-28T13:26:00;44.55;39.71;53.62;;
43938;Laerm;71382;47.750;10.226;2023-12-28T13:28:25;43.53;40.06;56.94;;
43938;Laerm;71382;47.750;10.226;2023-12-28T13:30:51;44.41;40.04;54.78;;
43938;Laerm;71382;47.750;10.226;2023-12-28T13:33:21;44.44;40.27;57.29;;
43938;Laerm;71382;47.750;10.226;2023-12-28T13:35:46;42.41;39.93;53.03;;